sensor_id;sensor_type;location;lat;lon;timestamp;temperature;humidity
23329;DHT22;11836;51.050;3.716;2023-03-23T00:01:14;17.60;99.90
23329;DHT22;11836;51.050;3.716;2023-03-23T00:03:41;17.50;99.90
23329;DHT22;11836;51.050;3.716;2023-03-23T00:06:08;17.60;99.90
23329;DHT22;11836;51.050;3.716;2023-03-23T00:08:39;17.60;99.90
23329;DHT22;11836;51.050;3.716;2023-03-23T00:13:50;17.50;99.90
23329;DHT22;11836;51.050;3.716;2023-03-23T00:16:21;17.50;99.90
23329;DHT22;11836;51.050;3.716;2023-03-23T00:19:04;17.50;99.90
23329;DHT22;11836;51.050;3.716;2023-03-23T00:21:33;17.60;99.90
23329;DHT22;11836;51.050;3.716;2023-03-23T00:24:00;17.90;99.90
23329;DHT22;11836;51.050;3.716;2023-03-23T00:26:29;17.50;99.90
23329;DHT22;11836;51.050;3.716;2023-03-23T00:29:04;17.50;99.90
23329;DHT22;11836;51.050;3.716;2023-03-23T00:31:41;17.50;99.90
23329;DHT22;11836;51.050;3.716;2023-03-23T00:34:07;17.50;99.90
23329;DHT22;11836;51.050;3.716;2023-03-23T00:36:38;17.50;99.90
23329;DHT22;11836;51.050;3.716;2023-03-23T00:39:08;17.50;99.90
23329;DHT22;11836;51.050;3.716;2023-03-23T00:41:46;17.40;99.90
23329;DHT22;11836;51.050;3.716;2023-03-23T00:44:20;17.50;99.90
23329;DHT22;11836;51.050;3.716;2023-03-23T00:46:49;17.50;99.90
23329;DHT22;11836;51.050;3.716;2023-03-23T00:49:24;17.50;99.90
23329;DHT22;11836;51.050;3.716;2023-03-23T00:51:53;17.40;99.90
23329;DHT22;11836;51.050;3.716;2023-03-23T00:54:22;17.40;99.90
23329;DHT22;11836;51.050;3.716;2023-03-23T00:56:51;17.40;99.90
23329;DHT22;11836;51.050;3.716;2023-03-23T00:59:29;17.40;99.90
23329;DHT22;11836;51.050;3.716;2023-03-23T01:01:58;17.40;99.90
23329;DHT22;11836;51.050;3.716;2023-03-23T01:04:27;17.40;99.90
23329;DHT22;11836;51.050;3.716;2023-03-23T01:06:57;17.40;99.90
23329;DHT22;11836;51.050;3.716;2023-03-23T01:09:28;17.40;99.90
23329;DHT22;11836;51.050;3.716;2023-03-23T01:11:54;17.40;99.90
23329;DHT22;11836;51.050;3.716;2023-03-23T01:14:21;17.40;99.90
23329;DHT22;11836;51.050;3.716;2023-03-23T01:16:51;17.40;99.90
23329;DHT22;11836;51.050;3.716;2023-03-23T01:19:20;17.40;99.90
23329;DHT22;11836;51.050;3.716;2023-03-23T01:21:46;17.40;99.90
23329;DHT22;11836;51.050;3.716;2023-03-23T01:24:12;17.40;99.90
23329;DHT22;11836;51.050;3.716;2023-03-23T01:26:41;17.30;99.90
23329;DHT22;11836;51.050;3.716;2023-03-23T01:29:07;17.30;99.90
23329;DHT22;11836;51.050;3.716;2023-03-23T01:31:33;17.40;99.90
23329;DHT22;11836;51.050;3.716;2023-03-23T01:34:02;17.40;99.90
23329;DHT22;11836;51.050;3.716;2023-03-23T01:36:29;17.40;99.90
23329;DHT22;11836;51.050;3.716;2023-03-23T01:39:02;17.30;99.90
23329;DHT22;11836;51.050;3.716;2023-03-23T01:41:30;17.30;99.90
23329;DHT22;11836;51.050;3.716;2023-03-23T01:44:06;17.30;99.90
23329;DHT22;11836;51.050;3.716;2023-03-23T01:46:37;17.30;99.90
23329;DHT22;11836;51.050;3.716;2023-03-23T01:49:34;17.30;99.90
23329;DHT22;11836;51.050;3.716;2023-03-23T01:52:09;17.30;99.90
23329;DHT22;11836;51.050;3.716;2023-03-23T01:54:48;17.30;99.90
23329;DHT22;11836;51.050;3.716;2023-03-23T01:57:22;17.30;99.90
23329;DHT22;11836;51.050;3.716;2023-03-23T01:59:57;17.30;99.90
23329;DHT22;11836;51.050;3.716;2023-03-23T02:02:27;17.30;99.90
23329;DHT22;11836;51.050;3.716;2023-03-23T02:05:01;17.30;99.90
23329;DHT22;11836;51.050;3.716;2023-03-23T02:07:36;17.30;99.90
23329;DHT22;11836;51.050;3.716;2023-03-23T02:10:07;17.30;99.90
23329;DHT22;11836;51.050;3.716;2023-03-23T02:12:34;17.30;99.90
23329;DHT22;11836;51.050;3.716;2023-03-23T02:15:01;17.20;99.90
23329;DHT22;11836;51.050;3.716;2023-03-23T02:18:02;17.20;99.90
23329;DHT22;11836;51.050;3.716;2023-03-23T02:40:21;17.10;99.90
23329;DHT22;11836;51.050;3.716;2023-03-23T02:42:53;17.20;99.90
23329;DHT22;11836;51.050;3.716;2023-03-23T02:45:22;17.20;99.90
23329;DHT22;11836;51.050;3.716;2023-03-23T02:47:56;17.20;99.90
23329;DHT22;11836;51.050;3.716;2023-03-23T02:50:28;17.20;99.90
23329;DHT22;11836;51.050;3.716;2023-03-23T02:53:01;17.10;99.90
23329;DHT22;11836;51.050;3.716;2023-03-23T02:55:28;17.10;99.90
23329;DHT22;11836;51.050;3.716;2023-03-23T02:57:56;17.20;99.90
23329;DHT22;11836;51.050;3.716;2023-03-23T03:00:27;17.20;99.90
23329;DHT22;11836;51.050;3.716;2023-03-23T03:02:56;17.20;99.90
23329;DHT22;11836;51.050;3.716;2023-03-23T03:05:38;17.10;99.90
23329;DHT22;11836;51.050;3.716;2023-03-23T03:11:07;17.10;99.90
23329;DHT22;11836;51.050;3.716;2023-03-23T03:16:33;17.10;99.90
23329;DHT22;11836;51.050;3.716;2023-03-23T03:22:18;17.10;99.90
23329;DHT22;11836;51.050;3.716;2023-03-23T03:24:58;17.10;99.90
23329;DHT22;11836;51.050;3.716;2023-03-23T03:27:27;17.10;99.90
23329;DHT22;11836;51.050;3.716;2023-03-23T03:29:57;17.10;99.90
23329;DHT22;11836;51.050;3.716;2023-03-23T03:32:49;17.10;99.90
23329;DHT22;11836;51.050;3.716;2023-03-23T03:35:25;17.10;99.90
23329;DHT22;11836;51.050;3.716;2023-03-23T03:37:51;17.00;99.90
23329;DHT22;11836;51.050;3.716;2023-03-23T03:40:33;17.10;99.90
23329;DHT22;11836;51.050;3.716;2023-03-23T03:43:07;17.00;99.90
23329;DHT22;11836;51.050;3.716;2023-03-23T03:45:33;17.00;99.90
23329;DHT22;11836;51.050;3.716;2023-03-23T03:48:01;17.00;99.90
23329;DHT22;11836;51.050;3.716;2023-03-23T03:50:34;17.10;99.90
23329;DHT22;11836;51.050;3.716;2023-03-23T03:53:02;17.10;99.90
23329;DHT22;11836;51.050;3.716;2023-03-23T03:55:30;17.00;99.90
23329;DHT22;11836;51.050;3.716;2023-03-23T03:58:01;17.00;99.90
23329;DHT22;11836;51.050;3.716;2023-03-23T04:00:28;17.00;99.90
23329;DHT22;11836;51.050;3.716;2023-03-23T04:02:57;17.00;99.90
23329;DHT22;11836;51.050;3.716;2023-03-23T04:05:28;17.00;99.90
23329;DHT22;11836;51.050;3.716;2023-03-23T04:07:54;17.00;99.90
23329;DHT22;11836;51.050;3.716;2023-03-23T04:10:37;17.00;99.90
23329;DHT22;11836;51.050;3.716;2023-03-23T04:13:13;17.00;99.90
23329;DHT22;11836;51.050;3.716;2023-03-23T04:15:43;16.90;99.90
23329;DHT22;11836;51.050;3.716;2023-03-23T04:18:09;17.00;99.90
23329;DHT22;11836;51.050;3.716;2023-03-23T04:20:44;17.00;99.90
23329;DHT22;11836;51.050;3.716;2023-03-23T04:23:19;17.00;99.90
23329;DHT22;11836;51.050;3.716;2023-03-23T04:25:51;16.90;99.90
23329;DHT22;11836;51.050;3.716;2023-03-23T04:28:19;17.00;99.90
23329;DHT22;11836;51.050;3.716;2023-03-23T04:30:52;17.00;99.90
23329;DHT22;11836;51.050;3.716;2023-03-23T04:33:20;16.90;99.90
23329;DHT22;11836;51.050;3.716;2023-03-23T04:35:46;16.70;99.90
23329;DHT22;11836;51.050;3.716;2023-03-23T04:38:14;16.90;99.90
23329;DHT22;11836;51.050;3.716;2023-03-23T04:40:59;17.00;99.90
23329;DHT22;11836;51.050;3.716;2023-03-23T04:43:27;17.00;99.90
23329;DHT22;11836;51.050;3.716;2023-03-23T04:46:00;16.90;99.90
23329;DHT22;11836;51.050;3.716;2023-03-23T04:48:29;16.90;99.90
23329;DHT22;11836;51.050;3.716;2023-03-23T04:50:55;16.90;99.90
23329;DHT22;11836;51.050;3.716;2023-03-23T04:53:21;16.90;99.90
23329;DHT22;11836;51.050;3.716;2023-03-23T04:55:48;16.90;99.90
23329;DHT22;11836;51.050;3.716;2023-03-23T04:58:15;16.90;99.90
23329;DHT22;11836;51.050;3.716;2023-03-23T05:00:42;16.90;99.90
23329;DHT22;11836;51.050;3.716;2023-03-23T05:03:18;16.90;99.90
23329;DHT22;11836;51.050;3.716;2023-03-23T05:05:47;16.90;99.90
23329;DHT22;11836;51.050;3.716;2023-03-23T05:08:18;16.90;99.90
23329;DHT22;11836;51.050;3.716;2023-03-23T05:10:59;16.90;99.90
23329;DHT22;11836;51.050;3.716;2023-03-23T05:13:27;16.90;99.90
23329;DHT22;11836;51.050;3.716;2023-03-23T05:15:53;16.90;99.90
23329;DHT22;11836;51.050;3.716;2023-03-23T05:18:19;16.90;99.90
23329;DHT22;11836;51.050;3.716;2023-03-23T05:20:48;16.90;99.90
23329;DHT22;11836;51.050;3.716;2023-03-23T05:23:15;16.90;99.90
23329;DHT22;11836;51.050;3.716;2023-03-23T05:25:41;16.80;99.90
23329;DHT22;11836;51.050;3.716;2023-03-23T05:28:08;16.80;99.90
23329;DHT22;11836;51.050;3.716;2023-03-23T05:30:34;16.80;99.90
23329;DHT22;11836;51.050;3.716;2023-03-23T05:33:00;16.90;99.90
23329;DHT22;11836;51.050;3.716;2023-03-23T05:35:26;16.80;99.90
23329;DHT22;11836;51.050;3.716;2023-03-23T05:37:55;16.80;99.90
23329;DHT22;11836;51.050;3.716;2023-03-23T05:40:22;16.80;99.90
23329;DHT22;11836;51.050;3.716;2023-03-23T05:42:51;16.80;99.90
23329;DHT22;11836;51.050;3.716;2023-03-23T05:45:18;16.80;99.90
23329;DHT22;11836;51.050;3.716;2023-03-23T05:47:43;16.80;99.90
23329;DHT22;11836;51.050;3.716;2023-03-23T05:50:10;16.80;99.90
23329;DHT22;11836;51.050;3.716;2023-03-23T05:52:38;16.80;99.90
23329;DHT22;11836;51.050;3.716;2023-03-23T05:55:05;16.80;99.90
23329;DHT22;11836;51.050;3.716;2023-03-23T05:57:32;16.80;99.90
23329;DHT22;11836;51.050;3.716;2023-03-23T05:59:58;16.80;99.90
23329;DHT22;11836;51.050;3.716;2023-03-23T06:02:25;16.80;99.90
23329;DHT22;11836;51.050;3.716;2023-03-23T06:04:54;16.70;99.90
23329;DHT22;11836;51.050;3.716;2023-03-23T06:07:28;16.80;99.90
23329;DHT22;11836;51.050;3.716;2023-03-23T06:09:54;16.70;99.90
23329;DHT22;11836;51.050;3.716;2023-03-23T06:12:21;16.70;99.90
23329;DHT22;11836;51.050;3.716;2023-03-23T06:14:48;16.70;99.90
23329;DHT22;11836;51.050;3.716;2023-03-23T06:17:16;16.70;99.90
23329;DHT22;11836;51.050;3.716;2023-03-23T06:19:43;16.70;99.90
23329;DHT22;11836;51.050;3.716;2023-03-23T06:22:11;16.70;99.90
23329;DHT22;11836;51.050;3.716;2023-03-23T06:24:37;16.50;99.90
23329;DHT22;11836;51.050;3.716;2023-03-23T06:27:03;16.70;99.90
23329;DHT22;11836;51.050;3.716;2023-03-23T06:29:30;16.70;99.90
23329;DHT22;11836;51.050;3.716;2023-03-23T06:32:01;16.70;99.90
23329;DHT22;11836;51.050;3.716;2023-03-23T06:34:28;16.70;99.90
23329;DHT22;11836;51.050;3.716;2023-03-23T06:36:57;16.70;99.90
23329;DHT22;11836;51.050;3.716;2023-03-23T06:39:23;16.70;99.90
23329;DHT22;11836;51.050;3.716;2023-03-23T06:41:50;16.70;99.90
23329;DHT22;11836;51.050;3.716;2023-03-23T06:44:16;16.70;99.90
23329;DHT22;11836;51.050;3.716;2023-03-23T06:46:44;16.70;99.90
23329;DHT22;11836;51.050;3.716;2023-03-23T06:49:10;16.70;99.90
23329;DHT22;11836;51.050;3.716;2023-03-23T06:51:39;16.70;99.90
23329;DHT22;11836;51.050;3.716;2023-03-23T06:54:20;16.70;99.90
23329;DHT22;11836;51.050;3.716;2023-03-23T06:56:48;16.60;99.90
23329;DHT22;11836;51.050;3.716;2023-03-23T06:59:14;16.70;99.90
23329;DHT22;11836;51.050;3.716;2023-03-23T07:01:40;16.60;99.90
23329;DHT22;11836;51.050;3.716;2023-03-23T07:04:06;16.70;99.90
23329;DHT22;11836;51.050;3.716;2023-03-23T07:06:32;16.70;99.90
23329;DHT22;11836;51.050;3.716;2023-03-23T07:08:59;16.60;99.90
23329;DHT22;11836;51.050;3.716;2023-03-23T07:11:25;16.60;99.90
23329;DHT22;11836;51.050;3.716;2023-03-23T07:14:03;17.00;99.90
23329;DHT22;11836;51.050;3.716;2023-03-23T07:16:32;16.60;99.90
23329;DHT22;11836;51.050;3.716;2023-03-23T07:18:59;16.60;99.90
23329;DHT22;11836;51.050;3.716;2023-03-23T07:21:24;16.60;99.90
23329;DHT22;11836;51.050;3.716;2023-03-23T07:23:50;16.60;99.90
23329;DHT22;11836;51.050;3.716;2023-03-23T07:26:16;16.60;99.90
23329;DHT22;11836;51.050;3.716;2023-03-23T07:28:42;16.60;99.90
23329;DHT22;11836;51.050;3.716;2023-03-23T07:31:08;16.60;99.90
23329;DHT22;11836;51.050;3.716;2023-03-23T07:33:34;16.60;99.90
23329;DHT22;11836;51.050;3.716;2023-03-23T07:36:01;16.60;99.90
23329;DHT22;11836;51.050;3.716;2023-03-23T07:41:20;16.60;99.90
23329;DHT22;11836;51.050;3.716;2023-03-23T07:43:46;16.70;99.90
23329;DHT22;11836;51.050;3.716;2023-03-23T07:46:13;16.50;99.90
23329;DHT22;11836;51.050;3.716;2023-03-23T07:48:39;16.60;99.90
23329;DHT22;11836;51.050;3.716;2023-03-23T07:51:05;16.70;99.90
23329;DHT22;11836;51.050;3.716;2023-03-23T07:53:43;16.80;99.90
23329;DHT22;11836;51.050;3.716;2023-03-23T07:56:25;16.70;99.90
23329;DHT22;11836;51.050;3.716;2023-03-23T07:58:51;16.80;99.90
23329;DHT22;11836;51.050;3.716;2023-03-23T08:01:35;16.80;99.90
23329;DHT22;11836;51.050;3.716;2023-03-23T08:04:19;16.80;99.90
23329;DHT22;11836;51.050;3.716;2023-03-23T08:06:44;16.70;99.90
23329;DHT22;11836;51.050;3.716;2023-03-23T08:09:13;16.90;99.90
23329;DHT22;11836;51.050;3.716;2023-03-23T08:11:39;16.90;99.90
23329;DHT22;11836;51.050;3.716;2023-03-23T08:14:07;16.90;99.90
23329;DHT22;11836;51.050;3.716;2023-03-23T08:16:33;17.10;99.90
23329;DHT22;11836;51.050;3.716;2023-03-23T08:18:59;17.20;99.90
23329;DHT22;11836;51.050;3.716;2023-03-23T08:21:25;17.00;99.90
23329;DHT22;11836;51.050;3.716;2023-03-23T08:23:52;17.40;99.90
23329;DHT22;11836;51.050;3.716;2023-03-23T08:26:20;17.50;99.90
23329;DHT22;11836;51.050;3.716;2023-03-23T08:28:49;17.60;99.90
23329;DHT22;11836;51.050;3.716;2023-03-23T08:31:15;17.60;99.90
23329;DHT22;11836;51.050;3.716;2023-03-23T08:33:44;17.70;99.90
23329;DHT22;11836;51.050;3.716;2023-03-23T08:36:10;17.70;99.90
23329;DHT22;11836;51.050;3.716;2023-03-23T08:38:37;17.70;99.90
23329;DHT22;11836;51.050;3.716;2023-03-23T08:41:09;17.70;99.90
23329;DHT22;11836;51.050;3.716;2023-03-23T08:43:36;17.70;99.90
23329;DHT22;11836;51.050;3.716;2023-03-23T08:46:03;17.80;99.90
23329;DHT22;11836;51.050;3.716;2023-03-23T08:48:37;17.80;99.90
23329;DHT22;11836;51.050;3.716;2023-03-23T08:51:07;17.80;99.90
23329;DHT22;11836;51.050;3.716;2023-03-23T08:53:34;17.80;99.90
23329;DHT22;11836;51.050;3.716;2023-03-23T08:56:15;17.80;99.90
23329;DHT22;11836;51.050;3.716;2023-03-23T08:58:41;17.90;99.90
23329;DHT22;11836;51.050;3.716;2023-03-23T09:01:08;17.80;99.90
23329;DHT22;11836;51.050;3.716;2023-03-23T09:03:34;17.90;99.90
23329;DHT22;11836;51.050;3.716;2023-03-23T09:06:02;17.90;99.90
23329;DHT22;11836;51.050;3.716;2023-03-23T09:08:31;17.90;99.90
23329;DHT22;11836;51.050;3.716;2023-03-23T09:11:03;18.00;99.90
23329;DHT22;11836;51.050;3.716;2023-03-23T09:13:30;18.00;99.90
23329;DHT22;11836;51.050;3.716;2023-03-23T09:15:56;18.00;99.90
23329;DHT22;11836;51.050;3.716;2023-03-23T09:18:23;18.00;99.90
23329;DHT22;11836;51.050;3.716;2023-03-23T09:20:52;18.00;99.90
23329;DHT22;11836;51.050;3.716;2023-03-23T09:23:19;18.00;99.90
23329;DHT22;11836;51.050;3.716;2023-03-23T09:25:46;18.10;99.90
23329;DHT22;11836;51.050;3.716;2023-03-23T09:28:13;18.10;99.90
23329;DHT22;11836;51.050;3.716;2023-03-23T09:30:39;18.10;99.90
23329;DHT22;11836;51.050;3.716;2023-03-23T09:33:09;18.20;99.90
23329;DHT22;11836;51.050;3.716;2023-03-23T09:35:35;18.20;99.90
23329;DHT22;11836;51.050;3.716;2023-03-23T09:38:13;18.20;99.90
23329;DHT22;11836;51.050;3.716;2023-03-23T09:40:48;18.20;99.90
23329;DHT22;11836;51.050;3.716;2023-03-23T09:49:19;18.30;99.90
23329;DHT22;11836;51.050;3.716;2023-03-23T09:57:47;18.20;99.90
23329;DHT22;11836;51.050;3.716;2023-03-23T10:00:32;18.30;99.90
23329;DHT22;11836;51.050;3.716;2023-03-23T10:03:30;18.30;99.90
23329;DHT22;11836;51.050;3.716;2023-03-23T10:05:59;18.30;99.90
23329;DHT22;11836;51.050;3.716;2023-03-23T10:08:27;18.30;99.90
23329;DHT22;11836;51.050;3.716;2023-03-23T10:14:06;18.40;99.90
23329;DHT22;11836;51.050;3.716;2023-03-23T10:16:45;18.40;99.90
23329;DHT22;11836;51.050;3.716;2023-03-23T10:19:38;18.40;99.90
23329;DHT22;11836;51.050;3.716;2023-03-23T10:22:12;18.50;99.90
23329;DHT22;11836;51.050;3.716;2023-03-23T10:25:15;18.40;99.90
23329;DHT22;11836;51.050;3.716;2023-03-23T10:30:30;18.40;99.90
23329;DHT22;11836;51.050;3.716;2023-03-23T10:33:34;18.40;99.90
23329;DHT22;11836;51.050;3.716;2023-03-23T10:36:42;18.50;99.90
23329;DHT22;11836;51.050;3.716;2023-03-23T10:39:21;18.50;99.90
23329;DHT22;11836;51.050;3.716;2023-03-23T10:41:50;18.40;99.90
23329;DHT22;11836;51.050;3.716;2023-03-23T10:44:20;18.40;99.90
23329;DHT22;11836;51.050;3.716;2023-03-23T10:46:57;18.40;99.90
23329;DHT22;11836;51.050;3.716;2023-03-23T10:49:38;18.40;99.90
23329;DHT22;11836;51.050;3.716;2023-03-23T10:55:11;18.30;99.90
23329;DHT22;11836;51.050;3.716;2023-03-23T10:57:43;18.30;99.90
23329;DHT22;11836;51.050;3.716;2023-03-23T11:00:29;18.30;99.90
23329;DHT22;11836;51.050;3.716;2023-03-23T11:06:23;18.20;99.90
23329;DHT22;11836;51.050;3.716;2023-03-23T11:09:12;18.20;99.90
23329;DHT22;11836;51.050;3.716;2023-03-23T11:11:47;18.20;99.90
23329;DHT22;11836;51.050;3.716;2023-03-23T11:14:31;18.20;99.90
23329;DHT22;11836;51.050;3.716;2023-03-23T11:17:03;18.20;99.90
23329;DHT22;11836;51.050;3.716;2023-03-23T11:19:34;18.00;99.90
23329;DHT22;11836;51.050;3.716;2023-03-23T11:24:43;18.30;99.90
23329;DHT22;11836;51.050;3.716;2023-03-23T11:27:11;18.30;99.90
23329;DHT22;11836;51.050;3.716;2023-03-23T11:30:01;18.40;99.90
23329;DHT22;11836;51.050;3.716;2023-03-23T11:32:34;18.50;99.90
23329;DHT22;11836;51.050;3.716;2023-03-23T11:35:04;18.40;99.90
23329;DHT22;11836;51.050;3.716;2023-03-23T11:37:46;18.50;99.90
23329;DHT22;11836;51.050;3.716;2023-03-23T11:40:25;18.50;99.90
23329;DHT22;11836;51.050;3.716;2023-03-23T11:45:32;18.50;99.90
23329;DHT22;11836;51.050;3.716;2023-03-23T11:48:28;18.60;99.90
23329;DHT22;11836;51.050;3.716;2023-03-23T11:51:01;18.60;99.90
23329;DHT22;11836;51.050;3.716;2023-03-23T11:58:59;18.70;99.90
23329;DHT22;11836;51.050;3.716;2023-03-23T12:01:38;18.70;99.90
23329;DHT22;11836;51.050;3.716;2023-03-23T12:04:32;18.70;99.90
23329;DHT22;11836;51.050;3.716;2023-03-23T12:07:44;18.70;99.90
23329;DHT22;11836;51.050;3.716;2023-03-23T12:16:07;18.70;99.90
23329;DHT22;11836;51.050;3.716;2023-03-23T12:24:56;18.70;99.90
23329;DHT22;11836;51.050;3.716;2023-03-23T12:27:46;18.70;99.90
23329;DHT22;11836;51.050;3.716;2023-03-23T12:44:48;18.70;99.90
23329;DHT22;11836;51.050;3.716;2023-03-23T12:47:33;18.80;99.90
23329;DHT22;11836;51.050;3.716;2023-03-23T12:52:50;18.80;99.90
23329;DHT22;11836;51.050;3.716;2023-03-23T12:55:43;18.80;99.90
23329;DHT22;11836;51.050;3.716;2023-03-23T12:58:27;18.70;99.90
23329;DHT22;11836;51.050;3.716;2023-03-23T13:06:35;18.80;99.90
23329;DHT22;11836;51.050;3.716;2023-03-23T13:12:02;18.70;99.90
23329;DHT22;11836;51.050;3.716;2023-03-23T13:17:46;18.70;99.90
23329;DHT22;11836;51.050;3.716;2023-03-23T13:20:41;18.70;99.90
23329;DHT22;11836;51.050;3.716;2023-03-23T13:23:30;18.70;99.90
23329;DHT22;11836;51.050;3.716;2023-03-23T13:26:06;18.60;99.90
23329;DHT22;11836;51.050;3.716;2023-03-23T13:31:28;18.70;99.90
23329;DHT22;11836;51.050;3.716;2023-03-23T13:34:20;18.80;99.90
23329;DHT22;11836;51.050;3.716;2023-03-23T13:37:02;18.80;99.90
23329;DHT22;11836;51.050;3.716;2023-03-23T13:40:11;18.70;99.90
23329;DHT22;11836;51.050;3.716;2023-03-23T13:42:55;18.80;99.90
23329;DHT22;11836;51.050;3.716;2023-03-23T13:48:38;18.90;99.90
23329;DHT22;11836;51.050;3.716;2023-03-23T13:54:38;18.80;99.90
23329;DHT22;11836;51.050;3.716;2023-03-23T13:57:33;18.80;99.90
23329;DHT22;11836;51.050;3.716;2023-03-23T14:00:26;18.80;99.90
23329;DHT22;11836;51.050;3.716;2023-03-23T14:05:38;18.80;99.90
23329;DHT22;11836;51.050;3.716;2023-03-23T14:08:24;18.80;99.90
23329;DHT22;11836;51.050;3.716;2023-03-23T14:10:52;18.80;99.90
23329;DHT22;11836;51.050;3.716;2023-03-23T14:13:34;18.80;99.90
23329;DHT22;11836;51.050;3.716;2023-03-23T14:16:23;19.20;99.90
23329;DHT22;11836;51.050;3.716;2023-03-23T14:19:00;18.80;99.90
23329;DHT22;11836;51.050;3.716;2023-03-23T14:21:38;18.80;99.90
23329;DHT22;11836;51.050;3.716;2023-03-23T14:24:23;18.80;99.90
23329;DHT22;11836;51.050;3.716;2023-03-23T14:26:53;18.90;99.90
23329;DHT22;11836;51.050;3.716;2023-03-23T14:29:29;18.90;99.90
23329;DHT22;11836;51.050;3.716;2023-03-23T14:32:05;18.90;99.90
23329;DHT22;11836;51.050;3.716;2023-03-23T14:34:35;18.90;99.90
23329;DHT22;11836;51.050;3.716;2023-03-23T14:37:04;18.90;99.90
23329;DHT22;11836;51.050;3.716;2023-03-23T14:39:31;18.90;99.90
23329;DHT22;11836;51.050;3.716;2023-03-23T14:42:10;18.90;99.90
23329;DHT22;11836;51.050;3.716;2023-03-23T14:44:46;19.00;99.90
23329;DHT22;11836;51.050;3.716;2023-03-23T14:47:22;18.90;99.90
23329;DHT22;11836;51.050;3.716;2023-03-23T14:50:36;19.00;99.90
23329;DHT22;11836;51.050;3.716;2023-03-23T14:53:30;19.00;99.90
23329;DHT22;11836;51.050;3.716;2023-03-23T14:56:00;18.90;99.90
23329;DHT22;11836;51.050;3.716;2023-03-23T14:58:31;18.90;99.90
23329;DHT22;11836;51.050;3.716;2023-03-23T15:01:06;19.00;99.90
23329;DHT22;11836;51.050;3.716;2023-03-23T15:03:40;18.90;99.90
23329;DHT22;11836;51.050;3.716;2023-03-23T15:06:13;19.00;99.90
23329;DHT22;11836;51.050;3.716;2023-03-23T15:08:40;18.60;99.90
23329;DHT22;11836;51.050;3.716;2023-03-23T15:13:53;18.90;99.90
23329;DHT22;11836;51.050;3.716;2023-03-23T15:16:34;19.00;99.90
23329;DHT22;11836;51.050;3.716;2023-03-23T15:19:16;19.00;99.90
23329;DHT22;11836;51.050;3.716;2023-03-23T15:21:52;19.00;99.90
23329;DHT22;11836;51.050;3.716;2023-03-23T15:26:50;19.00;99.90
23329;DHT22;11836;51.050;3.716;2023-03-23T15:29:21;19.00;99.90
23329;DHT22;11836;51.050;3.716;2023-03-23T15:31:52;19.00;99.90
23329;DHT22;11836;51.050;3.716;2023-03-23T15:37:03;18.90;99.90
23329;DHT22;11836;51.050;3.716;2023-03-23T15:39:31;18.90;99.90
23329;DHT22;11836;51.050;3.716;2023-03-23T15:42:00;18.90;99.90
23329;DHT22;11836;51.050;3.716;2023-03-23T15:44:37;18.90;99.90
23329;DHT22;11836;51.050;3.716;2023-03-23T15:47:18;18.90;99.90
23329;DHT22;11836;51.050;3.716;2023-03-23T15:52:44;19.00;99.90
23329;DHT22;11836;51.050;3.716;2023-03-23T15:55:26;18.80;99.90
23329;DHT22;11836;51.050;3.716;2023-03-23T15:58:18;18.90;99.90
23329;DHT22;11836;51.050;3.716;2023-03-23T16:00:44;18.90;99.90
23329;DHT22;11836;51.050;3.716;2023-03-23T16:03:25;18.90;99.90
23329;DHT22;11836;51.050;3.716;2023-03-23T16:05:54;18.80;99.90
23329;DHT22;11836;51.050;3.716;2023-03-23T16:08:20;18.80;99.90
23329;DHT22;11836;51.050;3.716;2023-03-23T16:10:46;18.80;99.90
23329;DHT22;11836;51.050;3.716;2023-03-23T16:13:19;18.80;99.90
23329;DHT22;11836;51.050;3.716;2023-03-23T16:15:55;18.80;99.90
23329;DHT22;11836;51.050;3.716;2023-03-23T16:18:24;18.70;99.90
23329;DHT22;11836;51.050;3.716;2023-03-23T16:20:53;18.80;99.90
23329;DHT22;11836;51.050;3.716;2023-03-23T16:23:21;18.80;99.90
23329;DHT22;11836;51.050;3.716;2023-03-23T16:25:47;18.80;99.90
23329;DHT22;11836;51.050;3.716;2023-03-23T16:28:14;18.80;99.90
23329;DHT22;11836;51.050;3.716;2023-03-23T16:30:52;18.80;99.90
23329;DHT22;11836;51.050;3.716;2023-03-23T16:33:19;18.60;99.90
23329;DHT22;11836;51.050;3.716;2023-03-23T16:35:48;18.80;99.90
23329;DHT22;11836;51.050;3.716;2023-03-23T16:38:31;18.80;99.90
23329;DHT22;11836;51.050;3.716;2023-03-23T16:41:05;18.80;99.90
23329;DHT22;11836;51.050;3.716;2023-03-23T16:43:38;18.60;99.90
23329;DHT22;11836;51.050;3.716;2023-03-23T16:46:08;18.80;99.90
23329;DHT22;11836;51.050;3.716;2023-03-23T16:48:38;18.80;99.90
23329;DHT22;11836;51.050;3.716;2023-03-23T16:51:06;18.80;99.90
23329;DHT22;11836;51.050;3.716;2023-03-23T16:53:35;18.80;99.90
23329;DHT22;11836;51.050;3.716;2023-03-23T16:56:03;18.80;99.90
23329;DHT22;11836;51.050;3.716;2023-03-23T16:58:33;18.70;99.90
23329;DHT22;11836;51.050;3.716;2023-03-23T17:01:00;18.80;99.90
23329;DHT22;11836;51.050;3.716;2023-03-23T17:03:26;18.80;99.90
23329;DHT22;11836;51.050;3.716;2023-03-23T17:05:52;18.70;99.90
23329;DHT22;11836;51.050;3.716;2023-03-23T17:08:18;18.70;99.90
23329;DHT22;11836;51.050;3.716;2023-03-23T17:10:48;18.70;99.90
23329;DHT22;11836;51.050;3.716;2023-03-23T17:13:16;18.70;99.90
23329;DHT22;11836;51.050;3.716;2023-03-23T17:15:43;18.70;99.90
23329;DHT22;11836;51.050;3.716;2023-03-23T17:18:09;18.50;99.90
23329;DHT22;11836;51.050;3.716;2023-03-23T17:20:36;18.70;99.90
23329;DHT22;11836;51.050;3.716;2023-03-23T17:23:05;18.70;99.90
23329;DHT22;11836;51.050;3.716;2023-03-23T17:25:34;18.70;99.90
23329;DHT22;11836;51.050;3.716;2023-03-23T17:28:00;18.70;99.90
23329;DHT22;11836;51.050;3.716;2023-03-23T17:30:28;18.70;99.90
23329;DHT22;11836;51.050;3.716;2023-03-23T17:32:59;18.60;99.90
23329;DHT22;11836;51.050;3.716;2023-03-23T17:35:28;18.60;99.90
23329;DHT22;11836;51.050;3.716;2023-03-23T17:37:59;18.60;99.90
23329;DHT22;11836;51.050;3.716;2023-03-23T17:40:28;18.60;99.90
23329;DHT22;11836;51.050;3.716;2023-03-23T17:42:54;18.60;99.90
23329;DHT22;11836;51.050;3.716;2023-03-23T17:45:23;18.60;99.90
23329;DHT22;11836;51.050;3.716;2023-03-23T17:47:52;18.60;99.90
23329;DHT22;11836;51.050;3.716;2023-03-23T17:50:18;18.60;99.90
23329;DHT22;11836;51.050;3.716;2023-03-23T17:52:45;18.60;99.90
23329;DHT22;11836;51.050;3.716;2023-03-23T17:55:21;18.50;99.90
23329;DHT22;11836;51.050;3.716;2023-03-23T17:57:54;18.50;99.90
23329;DHT22;11836;51.050;3.716;2023-03-23T18:00:20;18.60;99.90
23329;DHT22;11836;51.050;3.716;2023-03-23T18:02:46;18.50;99.90
23329;DHT22;11836;51.050;3.716;2023-03-23T18:05:12;18.50;99.90
23329;DHT22;11836;51.050;3.716;2023-03-23T18:07:39;18.50;99.90
23329;DHT22;11836;51.050;3.716;2023-03-23T18:10:07;18.30;99.90
23329;DHT22;11836;51.050;3.716;2023-03-23T18:12:49;18.30;99.90
23329;DHT22;11836;51.050;3.716;2023-03-23T18:15:19;18.30;99.90